createdAt,value
2023-05-15T00:00:02.432Z,0
2023-05-15T00:05:02.624Z,0
2023-05-15T00:10:03.194Z,0
2023-05-15T00:15:02.990Z,0
2023-05-15T00:20:02.804Z,0
2023-05-15T00:25:02.503Z,0
2023-05-15T00:30:03.317Z,0
2023-05-15T00:35:03.072Z,0
2023-05-15T00:40:02.393Z,0
2023-05-15T00:45:03.180Z,0
2023-05-15T00:50:03.184Z,0
2023-05-15T00:55:03.527Z,0
2023-05-15T01:00:02.651Z,0
2023-05-15T01:05:02.505Z,0
2023-05-15T01:10:03.376Z,0
2023-05-15T01:15:03.066Z,0
2023-05-15T01:20:03.130Z,0
2023-05-15T01:25:02.895Z,0
2023-05-15T01:30:03.089Z,0
2023-05-15T01:35:02.891Z,0
2023-05-15T01:40:03.121Z,0
2023-05-15T01:45:02.864Z,0
2023-05-15T01:50:02.503Z,0
2023-05-15T01:55:03.767Z,0
2023-05-15T02:00:03.181Z,0
2023-05-15T02:05:03.280Z,0
2023-05-15T02:10:02.845Z,0
2023-05-15T02:15:02.905Z,0
2023-05-15T02:20:02.726Z,0
2023-05-15T02:25:02.442Z,0
2023-05-15T02:30:03.241Z,0.11
2023-05-15T02:35:03.148Z,0.45
2023-05-15T02:40:02.964Z,1.02
2023-05-15T02:45:03.319Z,2.26
2023-05-15T02:50:02.997Z,4.53
2023-05-15T02:55:03.848Z,9.06
2023-05-15T03:00:02.464Z,6.67
2023-05-15T03:05:03.236Z,15
2023-05-15T03:10:02.834Z,26.67
2023-05-15T03:15:02.818Z,45
2023-05-15T03:20:02.562Z,70
2023-05-15T03:25:03.322Z,103.33
2023-05-15T03:30:03.142Z,153.33
2023-05-15T03:35:03.136Z,268.33
2023-05-15T03:40:02.557Z,380
2023-05-15T03:45:03.369Z,481.67
2023-05-15T03:50:03.056Z,605
2023-05-15T03:55:03.351Z,740
2023-05-15T04:00:02.482Z,853.33
2023-05-15T04:05:03.256Z,985
2023-05-15T04:10:03.042Z,1228.33
2023-05-15T04:15:02.732Z,1393.33
2023-05-15T04:20:02.586Z,1581.67
2023-05-15T04:25:03.426Z,1783.33
2023-05-15T04:30:03.102Z,2051.67
2023-05-15T04:35:02.747Z,2218.33
2023-05-15T04:40:02.636Z,2503.33
2023-05-15T04:45:03.394Z,2805
2023-05-15T04:50:03.219Z,2848.33
2023-05-15T04:55:03.191Z,3166.67
2023-05-15T05:00:02.823Z,3443.33
2023-05-15T05:05:02.825Z,3826.67
2023-05-15T05:10:02.636Z,4205
2023-05-15T05:15:02.660Z,4173.33
2023-05-15T05:20:02.599Z,3516.67
2023-05-15T05:25:02.750Z,3870
2023-05-15T05:30:02.640Z,4105
2023-05-15T05:35:03.312Z,5433.33
2023-05-15T05:40:03.061Z,6985
2023-05-15T05:45:03.475Z,8090
2023-05-15T05:50:02.662Z,6790
2023-05-15T05:55:03.033Z,6743.33
2023-05-15T06:00:02.230Z,7078.33
2023-05-15T06:05:03.452Z,7326.67
2023-05-15T06:10:03.487Z,7426.67
2023-05-15T06:15:03.484Z,7770
2023-05-15T06:20:02.575Z,9513.33
2023-05-15T06:25:03.122Z,9761.67
2023-05-15T06:30:02.944Z,10020
2023-05-15T06:35:02.829Z,10313.33
2023-05-15T06:40:02.593Z,10301.67
2023-05-15T06:50:03.350Z,11136.67
2023-05-15T06:55:03.533Z,10908.33
2023-05-15T07:00:02.905Z,11605
2023-05-15T07:05:02.640Z,11753.33
2023-05-15T07:10:03.224Z,12268.33
2023-05-15T07:15:03.195Z,28166.67
2023-05-15T07:20:02.780Z,33693.33
2023-05-15T07:25:02.608Z,42583.33
2023-05-15T07:30:03.245Z,38916.67
2023-05-15T07:35:02.987Z,36606.67
2023-05-15T07:40:02.932Z,33960
2023-05-15T07:45:02.619Z,37510
2023-05-15T07:50:03.290Z,35566.67
2023-05-15T07:55:03.647Z,37690
2023-05-15T08:00:02.826Z,34680
2023-05-15T08:05:02.631Z,40766.67
2023-05-15T08:10:03.234Z,44203.33
2023-05-15T08:15:03.015Z,13431.67
2023-05-15T08:20:02.946Z,12518.33
2023-05-15T08:25:02.691Z,44100
2023-05-15T08:30:02.554Z,30103.33
2023-05-15T08:35:03.205Z,38580
2023-05-15T08:40:02.950Z,57967.19
2023-05-15T08:45:02.901Z,59688.59
2023-05-15T08:50:02.516Z,35746.67
2023-05-15T08:55:03.555Z,76642.11
2023-05-15T09:00:03.235Z,36430
2023-05-15T09:05:03.039Z,62949.92
2023-05-15T09:10:02.770Z,43183.33
2023-05-15T09:15:02.493Z,46160
2023-05-15T09:20:03.262Z,36096.67
2023-05-15T09:25:03.003Z,46650
2023-05-15T09:30:02.707Z,36510
2023-05-15T09:35:02.657Z,40490
2023-05-15T09:40:02.417Z,86176.33
2023-05-15T09:45:03.203Z,79925
2023-05-15T09:50:02.918Z,77148.83
2023-05-15T09:55:03.327Z,60739.77
2023-05-15T10:00:03.297Z,79048.13
2023-05-15T10:05:03.245Z,65510.47
2023-05-15T10:10:02.919Z,88550
2023-05-15T10:15:02.832Z,93101.48
2023-05-15T10:20:02.748Z,36770
2023-05-15T10:25:02.449Z,11906.67
2023-05-15T10:30:03.164Z,10633.33
2023-05-15T10:35:02.772Z,13048.33
2023-05-15T10:40:02.590Z,62398.28
2023-05-15T10:45:02.595Z,67458.28
2023-05-15T10:50:03.387Z,29456.67
2023-05-15T10:55:03.639Z,8811.67
2023-05-15T11:00:02.969Z,8643.33
2023-05-15T11:05:03.023Z,5388.33
2023-05-15T11:10:06.114Z,5773.33
2023-05-15T11:15:03.134Z,6768.33
2023-05-15T11:20:02.824Z,7181.67
2023-05-15T11:25:02.897Z,7456.67
2023-05-15T11:30:03.404Z,7596.67
2023-05-15T11:35:02.476Z,8306.67
2023-05-15T11:40:03.293Z,9318.33
2023-05-15T11:45:03.023Z,10190
2023-05-15T11:50:03.156Z,11063.33
2023-05-15T11:55:03.671Z,12481.67
2023-05-15T12:00:02.914Z,13355
2023-05-15T12:05:02.705Z,11911.67
2023-05-15T12:10:03.187Z,28253.33
2023-05-15T12:15:03.135Z,31760
2023-05-15T12:20:02.849Z,12405
2023-05-15T12:25:02.735Z,92628.91
2023-05-15T12:30:02.481Z,90203.12
2023-05-15T12:35:02.576Z,81806.33
2023-05-15T12:40:03.287Z,11508.33
2023-05-15T12:45:03.189Z,9916.67
2023-05-15T12:50:02.926Z,6935
2023-05-15T12:55:03.624Z,10170
2023-05-15T13:00:02.534Z,8930
2023-05-15T13:05:03.413Z,6321.67
2023-05-15T13:10:03.030Z,8140
2023-05-15T13:15:03.073Z,12941.67
2023-05-15T13:20:03.041Z,59983.28
2023-05-15T13:25:03.319Z,64222.11
2023-05-15T13:30:03.064Z,65073.83
2023-05-15T13:35:02.942Z,61837.66
2023-05-15T13:40:02.607Z,64058.59
2023-05-15T13:45:03.318Z,65231.95
2023-05-15T13:50:03.025Z,65242.73
2023-05-15T13:55:03.648Z,30706.67
2023-05-15T14:00:02.775Z,62628.28
2023-05-15T14:05:03.132Z,39046.67
2023-05-15T14:10:02.786Z,5166.67
2023-05-15T14:15:02.641Z,2125
2023-05-15T14:20:02.718Z,1260
2023-05-15T14:25:02.996Z,955
2023-05-15T14:30:02.994Z,925
2023-05-15T14:35:02.582Z,1095
2023-05-15T14:40:02.437Z,1368.33
2023-05-15T14:45:03.216Z,2213.33
2023-05-15T14:50:02.862Z,3841.67
2023-05-15T15:00:02.819Z,3595
2023-05-15T15:10:02.779Z,2975
2023-05-15T15:15:03.385Z,3088.33
2023-05-15T15:20:03.258Z,4993.33
2023-05-15T15:25:02.758Z,4003.33
2023-05-15T15:30:02.607Z,4508.33
2023-05-15T15:35:03.420Z,4461.67
2023-05-15T15:40:02.606Z,5843.33
2023-05-15T15:45:03.269Z,4016.67
2023-05-15T15:50:03.154Z,3335
2023-05-15T15:55:03.052Z,2655
2023-05-15T16:00:03.070Z,2693.33
2023-05-15T16:05:02.713Z,3021.67
2023-05-15T16:10:27.384Z,3651.67
2023-05-15T16:15:22.922Z,4025
2023-05-15T16:20:03.036Z,4021.67
2023-05-15T16:25:02.749Z,3525
2023-05-15T16:30:02.730Z,10026.67
2023-05-15T16:35:02.565Z,4315
2023-05-15T16:40:03.314Z,2866.67
2023-05-15T16:45:03.192Z,2746.67
2023-05-15T16:50:03.103Z,1893.33
2023-05-15T16:55:03.663Z,2458.33
2023-05-15T17:00:02.843Z,6265
2023-05-15T17:05:02.636Z,3521.67
2023-05-15T17:10:03.295Z,2741.67
2023-05-15T17:15:03.301Z,2038.33
2023-05-15T17:20:03.704Z,1706.67
2023-05-15T17:25:02.958Z,1488.33
2023-05-15T17:30:02.838Z,1213.33
2023-05-15T17:35:02.708Z,913.33
2023-05-15T17:40:02.544Z,760
2023-05-15T17:45:03.298Z,551.67
2023-05-15T17:50:03.081Z,716.67
2023-05-15T17:55:03.556Z,943.33
2023-05-15T18:00:02.792Z,1173.33
2023-05-15T18:05:02.574Z,1315
2023-05-15T18:10:03.300Z,1035
2023-05-15T18:15:03.030Z,766.67
2023-05-15T18:20:02.764Z,613.33
2023-05-15T18:25:09.679Z,541.67
2023-05-15T18:30:02.637Z,430
2023-05-15T18:35:02.558Z,398.33
2023-05-15T18:40:03.343Z,370
2023-05-15T18:45:03.238Z,246.67
2023-05-15T18:50:02.881Z,166.67
2023-05-15T18:55:03.538Z,71.67
2023-05-15T19:00:02.504Z,38.33
2023-05-15T19:05:02.696Z,20
2023-05-15T19:10:02.654Z,10
2023-05-15T19:15:03.420Z,10.41
2023-05-15T19:20:03.269Z,3.17
2023-05-15T19:25:02.943Z,0.68
2023-05-15T19:30:02.880Z,0.23
2023-05-15T19:35:02.678Z,0.23
2023-05-15T19:40:02.634Z,0.23
2023-05-15T19:45:03.325Z,0
2023-05-15T19:50:02.429Z,0
2023-05-15T19:55:04.100Z,0
2023-05-15T20:00:03.037Z,0
2023-05-15T20:05:02.768Z,0
2023-05-15T20:10:02.539Z,0
2023-05-15T20:15:02.809Z,0
2023-05-15T20:20:02.492Z,0
2023-05-15T20:25:03.180Z,0
2023-05-15T20:30:03.154Z,0
2023-05-15T20:35:02.826Z,0
2023-05-15T20:40:02.567Z,0
2023-05-15T20:45:03.491Z,0
2023-05-15T20:50:03.289Z,0
2023-05-15T20:55:03.393Z,0
2023-05-15T21:00:02.614Z,0
2023-05-15T21:05:02.663Z,0
2023-05-15T21:10:02.550Z,0
2023-05-15T21:15:02.885Z,0
2023-05-15T21:20:02.552Z,0
2023-05-15T21:25:03.286Z,0
2023-05-15T21:30:03.165Z,0
2023-05-15T21:35:02.826Z,0
2023-05-15T21:40:03.047Z,0
2023-05-15T21:45:06.711Z,0
2023-05-15T21:50:02.841Z,0
2023-05-15T21:55:03.523Z,0
2023-05-15T22:00:03.251Z,0
2023-05-15T22:05:03.292Z,0
2023-05-15T22:10:03.202Z,0
2023-05-15T22:15:03.229Z,0
2023-05-15T22:20:02.965Z,0
2023-05-15T22:25:02.968Z,0
2023-05-15T22:30:02.648Z,0
2023-05-15T22:35:03.396Z,0
2023-05-15T22:40:02.981Z,0
2023-05-15T22:45:03.065Z,0
2023-05-15T22:50:02.741Z,0
2023-05-15T22:55:04.096Z,0
2023-05-15T23:00:02.494Z,0
2023-05-15T23:05:03.141Z,0
2023-05-15T23:10:02.792Z,0
2023-05-15T23:15:02.548Z,0
2023-05-15T23:20:03.326Z,0
2023-05-15T23:25:03.005Z,0
2023-05-15T23:30:02.773Z,0
2023-05-15T23:35:02.823Z,0
2023-05-15T23:40:02.451Z,0
2023-05-15T23:45:03.376Z,0
2023-05-15T23:50:03.402Z,0
2023-05-15T23:55:03.634Z,0
